Terminal Aerodrome Forecast
Issued by NWS

Home | Current Version | Previous Version | Text Only | Print | Product List | Glossary On
Versions: 1 2 3 4 5 6 7 8 9 10 11 12 13 14 15 16 17 18 19 20 21
000
FTPQ31 PGUM 231100
TAFPQ
TAF

PKWA 231120Z 2312/2412 04009KT P6SM VCSH SCT018 SCT140
     FM231500 06012KT P6SM VCSH SCT016 SCT040 BKN120
      TEMPO 2315/2319 3SM +SHRA BKN014 OVC025=

USA.gov is the U.S. government's official web portal to all federal, state and local government web resources and services.